Terminal Aerodrome Forecast
Issued by NWS

Home | Current Version | Previous Version | Text Only | Print | Product List | Glossary On
Versions: 1 2 3 4 5 6 7 8 9 10 11 12 13 14
000
FTUS44 KLIX 222349
TAFGPT
TAF
KGPT 222349Z 2300/2324 16004KT P6SM SCT200
     FM230300 03004KT P6SM FEW250
     FM231500 09007KT P6SM FEW200
     FM231900 12012KT P6SM SCT030=

USA.gov is the U.S. government's official web portal to all federal, state and local government web resources and services.